sensor_id;sensor_type;location;lat;lon;timestamp;temperature;humidity
55365;DHT22;41245;45.384;20.390;2023-01-06T02:39:59;205.10;2252.80
55365;DHT22;41245;45.384;20.390;2023-01-06T02:58:47;205.10;2252.80
55365;DHT22;41245;45.384;20.390;2023-01-06T03:01:38;204.90;2252.80
55365;DHT22;41245;45.384;20.390;2023-01-06T03:04:09;204.80;2252.80
55365;DHT22;41245;45.384;20.390;2023-01-06T03:06:38;204.80;2252.80
55365;DHT22;41245;45.384;20.390;2023-01-06T03:09:11;204.80;2252.80
55365;DHT22;41245;45.384;20.390;2023-01-06T03:11:40;180.10;2252.80
55365;DHT22;41245;45.384;20.390;2023-01-06T03:14:15;180.10;2252.80
55365;DHT22;41245;45.384;20.390;2023-01-06T03:16:42;180.10;2252.80
55365;DHT22;41245;45.384;20.390;2023-01-06T03:19:08;180.10;2252.80
55365;DHT22;41245;45.384;20.390;2023-01-06T03:21:38;180.10;2252.80
55365;DHT22;41245;45.384;20.390;2023-01-06T03:24:07;180.10;2252.80
55365;DHT22;41245;45.384;20.390;2023-01-06T03:26:34;180.10;2252.80
55365;DHT22;41245;45.384;20.390;2023-01-06T03:29:00;180.10;2252.80
55365;DHT22;41245;45.384;20.390;2023-01-06T03:48:31;180.00;2252.80
55365;DHT22;41245;45.384;20.390;2023-01-06T03:51:24;180.00;2252.80
55365;DHT22;41245;45.384;20.390;2023-01-06T03:54:00;180.00;2252.80
55365;DHT22;41245;45.384;20.390;2023-01-06T03:56:31;180.00;2252.80
55365;DHT22;41245;45.384;20.390;2023-01-06T03:59:01;180.00;2252.80
55365;DHT22;41245;45.384;20.390;2023-01-06T04:01:28;179.90;2252.80
55365;DHT22;41245;45.384;20.390;2023-01-06T04:03:54;179.90;2252.80
55365;DHT22;41245;45.384;20.390;2023-01-06T04:06:21;179.90;2252.80
55365;DHT22;41245;45.384;20.390;2023-01-06T04:08:47;179.90;2252.80
55365;DHT22;41245;45.384;20.390;2023-01-06T04:11:13;179.90;2252.80
55365;DHT22;41245;45.384;20.390;2023-01-06T04:13:57;179.80;2252.80
55365;DHT22;41245;45.384;20.390;2023-01-06T04:16:22;179.80;2252.80
55365;DHT22;41245;45.384;20.390;2023-01-06T04:18:48;179.90;2252.80
55365;DHT22;41245;45.384;20.390;2023-01-06T04:21:14;179.90;2252.80
55365;DHT22;41245;45.384;20.390;2023-01-06T04:23:39;179.90;2252.80
55365;DHT22;41245;45.384;20.390;2023-01-06T04:26:05;179.90;2252.80
55365;DHT22;41245;45.384;20.390;2023-01-06T04:28:31;179.90;2252.80
55365;DHT22;41245;45.384;20.390;2023-01-06T04:30:57;179.90;2252.80
55365;DHT22;41245;45.384;20.390;2023-01-06T04:33:23;179.90;2252.80
55365;DHT22;41245;45.384;20.390;2023-01-06T04:35:49;180.00;2252.80
55365;DHT22;41245;45.384;20.390;2023-01-06T04:38:14;179.90;2252.80
55365;DHT22;41245;45.384;20.390;2023-01-06T04:40:41;179.90;2252.80
55365;DHT22;41245;45.384;20.390;2023-01-06T04:43:07;179.90;2252.80
55365;DHT22;41245;45.384;20.390;2023-01-06T04:45:39;179.90;2252.80
55365;DHT22;41245;45.384;20.390;2023-01-06T04:48:05;179.80;2252.80
55365;DHT22;41245;45.384;20.390;2023-01-06T04:50:31;179.90;2252.80
55365;DHT22;41245;45.384;20.390;2023-01-06T04:52:57;180.00;2252.80
55365;DHT22;41245;45.384;20.390;2023-01-06T04:55:23;179.90;2252.80
55365;DHT22;41245;45.384;20.390;2023-01-06T04:57:49;179.90;2252.80
55365;DHT22;41245;45.384;20.390;2023-01-06T05:00:15;180.00;2252.80
55365;DHT22;41245;45.384;20.390;2023-01-06T05:02:41;179.90;2252.80
55365;DHT22;41245;45.384;20.390;2023-01-06T05:05:07;179.90;2252.80
55365;DHT22;41245;45.384;20.390;2023-01-06T05:07:33;180.00;2252.80
55365;DHT22;41245;45.384;20.390;2023-01-06T05:09:59;180.00;2252.80
55365;DHT22;41245;45.384;20.390;2023-01-06T05:12:25;180.00;2252.80
55365;DHT22;41245;45.384;20.390;2023-01-06T05:14:50;180.00;2252.80
55365;DHT22;41245;45.384;20.390;2023-01-06T05:17:16;180.00;2252.80
55365;DHT22;41245;45.384;20.390;2023-01-06T05:19:42;180.00;2252.80
55365;DHT22;41245;45.384;20.390;2023-01-06T05:22:09;180.00;2252.80
55365;DHT22;41245;45.384;20.390;2023-01-06T05:24:35;180.00;2252.80
55365;DHT22;41245;45.384;20.390;2023-01-06T05:27:01;180.00;2252.80
55365;DHT22;41245;45.384;20.390;2023-01-06T05:29:27;180.00;2252.80
55365;DHT22;41245;45.384;20.390;2023-01-06T05:31:53;179.90;2252.80
55365;DHT22;41245;45.384;20.390;2023-01-06T05:34:18;179.90;2252.80
55365;DHT22;41245;45.384;20.390;2023-01-06T05:36:44;179.90;2252.80
55365;DHT22;41245;45.384;20.390;2023-01-06T05:39:10;179.90;2252.80
55365;DHT22;41245;45.384;20.390;2023-01-06T05:41:35;179.90;2252.80
55365;DHT22;41245;45.384;20.390;2023-01-06T05:44:01;179.90;2252.80
55365;DHT22;41245;45.384;20.390;2023-01-06T05:46:27;179.90;2252.80
55365;DHT22;41245;45.384;20.390;2023-01-06T05:48:52;180.00;2252.80
55365;DHT22;41245;45.384;20.390;2023-01-06T05:51:18;180.00;2252.80
55365;DHT22;41245;45.384;20.390;2023-01-06T05:53:46;180.00;2252.80
55365;DHT22;41245;45.384;20.390;2023-01-06T05:56:14;180.10;2252.80
55365;DHT22;41245;45.384;20.390;2023-01-06T05:58:43;180.10;2252.80
55365;DHT22;41245;45.384;20.390;2023-01-06T06:01:27;180.10;2252.80
55365;DHT22;41245;45.384;20.390;2023-01-06T06:03:53;180.10;2252.80
55365;DHT22;41245;45.384;20.390;2023-01-06T06:06:21;180.10;2252.80
55365;DHT22;41245;45.384;20.390;2023-01-06T06:08:47;180.10;2252.80
55365;DHT22;41245;45.384;20.390;2023-01-06T06:11:14;180.10;2252.80
55365;DHT22;41245;45.384;20.390;2023-01-06T06:13:45;180.10;2252.80
55365;DHT22;41245;45.384;20.390;2023-01-06T06:16:13;204.80;2252.80
55365;DHT22;41245;45.384;20.390;2023-01-06T06:18:40;204.80;2252.80
55365;DHT22;41245;45.384;20.390;2023-01-06T06:21:11;204.90;2252.80
55365;DHT22;41245;45.384;20.390;2023-01-06T06:23:38;204.90;2252.80
55365;DHT22;41245;45.384;20.390;2023-01-06T06:26:03;204.90;2252.80
55365;DHT22;41245;45.384;20.390;2023-01-06T06:28:30;204.90;2252.80
55365;DHT22;41245;45.384;20.390;2023-01-06T06:31:06;205.00;2252.80
55365;DHT22;41245;45.384;20.390;2023-01-06T06:33:32;205.00;2252.80
55365;DHT22;41245;45.384;20.390;2023-01-06T06:35:59;205.00;2252.80
55365;DHT22;41245;45.384;20.390;2023-01-06T06:38:26;205.10;2252.80
55365;DHT22;41245;45.384;20.390;2023-01-06T06:40:52;205.10;2252.80
55365;DHT22;41245;45.384;20.390;2023-01-06T06:43:17;205.20;2252.80
55365;DHT22;41245;45.384;20.390;2023-01-06T06:45:44;205.20;2252.80
55365;DHT22;41245;45.384;20.390;2023-01-06T06:48:09;205.30;2252.80
55365;DHT22;41245;45.384;20.390;2023-01-06T06:50:35;205.40;2252.80
55365;DHT22;41245;45.384;20.390;2023-01-06T06:53:01;205.50;2252.80
55365;DHT22;41245;45.384;20.390;2023-01-06T06:55:26;205.50;2252.80
55365;DHT22;41245;45.384;20.390;2023-01-06T06:57:52;205.50;2252.80
55365;DHT22;41245;45.384;20.390;2023-01-06T07:00:17;205.60;2252.80
55365;DHT22;41245;45.384;20.390;2023-01-06T07:02:47;205.70;2252.80
55365;DHT22;41245;45.384;20.390;2023-01-06T07:05:13;205.70;2252.80
55365;DHT22;41245;45.384;20.390;2023-01-06T07:07:39;230.40;2252.80
55365;DHT22;41245;45.384;20.390;2023-01-06T07:10:05;230.50;2252.80
55365;DHT22;41245;45.384;20.390;2023-01-06T07:12:30;230.40;2252.80
55365;DHT22;41245;45.384;20.390;2023-01-06T07:14:56;230.50;2252.80
55365;DHT22;41245;45.384;20.390;2023-01-06T07:17:28;230.50;2252.80
55365;DHT22;41245;45.384;20.390;2023-01-06T07:19:54;230.60;2252.80
55365;DHT22;41245;45.384;20.390;2023-01-06T07:22:20;230.70;2252.80
55365;DHT22;41245;45.384;20.390;2023-01-06T07:24:45;230.70;2252.80
55365;DHT22;41245;45.384;20.390;2023-01-06T07:27:11;230.70;2252.80
55365;DHT22;41245;45.384;20.390;2023-01-06T07:29:37;230.70;2252.80
55365;DHT22;41245;45.384;20.390;2023-01-06T07:32:03;230.70;2252.80
55365;DHT22;41245;45.384;20.390;2023-01-06T07:34:28;230.70;2252.80
55365;DHT22;41245;45.384;20.390;2023-01-06T07:36:54;230.70;2252.80
55365;DHT22;41245;45.384;20.390;2023-01-06T07:39:20;230.70;2252.80
55365;DHT22;41245;45.384;20.390;2023-01-06T07:41:45;230.70;2252.80
55365;DHT22;41245;45.384;20.390;2023-01-06T07:44:11;230.70;2252.80
55365;DHT22;41245;45.384;20.390;2023-01-06T07:46:36;230.80;2252.80
55365;DHT22;41245;45.384;20.390;2023-01-06T07:49:02;230.80;2252.80
55365;DHT22;41245;45.384;20.390;2023-01-06T07:51:28;230.90;2252.80
55365;DHT22;41245;45.384;20.390;2023-01-06T07:53:53;230.90;2252.80
55365;DHT22;41245;45.384;20.390;2023-01-06T07:56:19;230.90;2252.80
55365;DHT22;41245;45.384;20.390;2023-01-06T07:58:46;231.00;2252.80
55365;DHT22;41245;45.384;20.390;2023-01-06T08:01:12;231.10;2252.80
55365;DHT22;41245;45.384;20.390;2023-01-06T08:03:39;231.10;2252.80
55365;DHT22;41245;45.384;20.390;2023-01-06T08:06:07;231.10;2252.80
55365;DHT22;41245;45.384;20.390;2023-01-06T08:08:38;231.20;2252.80
55365;DHT22;41245;45.384;20.390;2023-01-06T08:11:08;231.30;2252.80
55365;DHT22;41245;45.384;20.390;2023-01-06T08:13:36;231.30;2252.80
55365;DHT22;41245;45.384;20.390;2023-01-06T08:16:06;231.30;2252.80
55365;DHT22;41245;45.384;20.390;2023-01-06T08:18:32;256.10;2252.80
55365;DHT22;41245;45.384;20.390;2023-01-06T08:21:01;256.20;2252.80
55365;DHT22;41245;45.384;20.390;2023-01-06T08:23:28;256.20;2252.80
55365;DHT22;41245;45.384;20.390;2023-01-06T08:26:12;256.30;2252.80
55365;DHT22;41245;45.384;20.390;2023-01-06T08:28:39;256.50;2252.80
55365;DHT22;41245;45.384;20.390;2023-01-06T08:31:12;256.60;2252.80
55365;DHT22;41245;45.384;20.390;2023-01-06T08:33:38;256.80;2252.80
55365;DHT22;41245;45.384;20.390;2023-01-06T08:36:05;256.90;2252.80
55365;DHT22;41245;45.384;20.390;2023-01-06T08:38:32;281.60;2278.40
55365;DHT22;41245;45.384;20.390;2023-01-06T08:40:58;281.80;2278.40
55365;DHT22;41245;45.384;20.390;2023-01-06T08:43:25;281.80;2278.40
55365;DHT22;41245;45.384;20.390;2023-01-06T08:45:51;281.90;2278.40
55365;DHT22;41245;45.384;20.390;2023-01-06T08:48:18;282.00;2278.40
55365;DHT22;41245;45.384;20.390;2023-01-06T08:50:44;282.10;2278.40
55365;DHT22;41245;45.384;20.390;2023-01-06T08:53:10;282.20;2278.40
55365;DHT22;41245;45.384;20.390;2023-01-06T08:55:40;282.20;2278.40
55365;DHT22;41245;45.384;20.390;2023-01-06T08:58:07;282.30;2278.40
55365;DHT22;41245;45.384;20.390;2023-01-06T09:00:35;282.40;2278.40
55365;DHT22;41245;45.384;20.390;2023-01-06T09:03:00;282.50;2278.40
55365;DHT22;41245;45.384;20.390;2023-01-06T09:05:26;307.30;2304.00
55365;DHT22;41245;45.384;20.390;2023-01-06T09:07:52;307.20;2304.00
55365;DHT22;41245;45.384;20.390;2023-01-06T09:10:19;307.50;2304.00
55365;DHT22;41245;45.384;20.390;2023-01-06T09:12:45;307.40;2304.00
55365;DHT22;41245;45.384;20.390;2023-01-06T09:15:11;307.50;2304.00
55365;DHT22;41245;45.384;20.390;2023-01-06T09:17:36;307.50;2304.00
55365;DHT22;41245;45.384;20.390;2023-01-06T09:20:02;307.60;2304.00
55365;DHT22;41245;45.384;20.390;2023-01-06T09:22:29;307.60;2304.00
55365;DHT22;41245;45.384;20.390;2023-01-06T09:24:55;307.70;2304.00
55365;DHT22;41245;45.384;20.390;2023-01-06T09:27:20;307.70;2304.00
55365;DHT22;41245;45.384;20.390;2023-01-06T09:29:46;307.80;2304.00
55365;DHT22;41245;45.384;20.390;2023-01-06T11:00:36;358.40;2329.60
55365;DHT22;41245;45.384;20.390;2023-01-06T11:03:04;333.60;2329.60
55365;DHT22;41245;45.384;20.390;2023-01-06T11:05:31;333.50;2329.60
55365;DHT22;41245;45.384;20.390;2023-01-06T11:08:06;333.60;2329.60
55365;DHT22;41245;45.384;20.390;2023-01-06T11:10:39;333.60;2329.60
55365;DHT22;41245;45.384;20.390;2023-01-06T11:13:29;333.50;2329.60
55365;DHT22;41245;45.384;20.390;2023-01-06T11:15:56;333.60;2329.60
55365;DHT22;41245;45.384;20.390;2023-01-06T11:18:31;333.60;2329.60
55365;DHT22;41245;45.384;20.390;2023-01-06T11:23:27;333.70;2329.60
55365;DHT22;41245;45.384;20.390;2023-01-06T11:26:17;333.60;2329.60
55365;DHT22;41245;45.384;20.390;2023-01-06T11:28:47;333.60;2329.60
55365;DHT22;41245;45.384;20.390;2023-01-06T11:36:23;333.60;2329.60
55365;DHT22;41245;45.384;20.390;2023-01-06T11:39:01;333.60;2329.60
55365;DHT22;41245;45.384;20.390;2023-01-06T11:41:31;333.70;2329.60
55365;DHT22;41245;45.384;20.390;2023-01-06T11:44:33;358.40;2329.60
55365;DHT22;41245;45.384;20.390;2023-01-06T11:47:21;358.40;2329.60
55365;DHT22;41245;45.384;20.390;2023-01-06T12:10:32;358.70;2329.60
55365;DHT22;41245;45.384;20.390;2023-01-06T12:12:59;358.50;2329.60
55365;DHT22;41245;45.384;20.390;2023-01-06T12:15:26;358.50;2329.60
55365;DHT22;41245;45.384;20.390;2023-01-06T12:18:17;358.40;2329.60
55365;DHT22;41245;45.384;20.390;2023-01-06T12:20:47;358.40;2329.60
55365;DHT22;41245;45.384;20.390;2023-01-06T12:23:22;358.40;2329.60
55365;DHT22;41245;45.384;20.390;2023-01-06T12:25:50;333.70;2329.60
55365;DHT22;41245;45.384;20.390;2023-01-06T12:28:29;333.70;2329.60
55365;DHT22;41245;45.384;20.390;2023-01-06T12:31:18;333.60;2329.60
55365;DHT22;41245;45.384;20.390;2023-01-06T12:36:53;333.70;2329.60
55365;DHT22;41245;45.384;20.390;2023-01-06T12:39:29;333.70;2329.60
55365;DHT22;41245;45.384;20.390;2023-01-06T12:42:05;358.40;2329.60
55365;DHT22;41245;45.384;20.390;2023-01-06T12:45:02;358.40;2329.60
55365;DHT22;41245;45.384;20.390;2023-01-06T12:47:33;333.70;2329.60
55365;DHT22;41245;45.384;20.390;2023-01-06T12:52:58;333.70;2329.60
55365;DHT22;41245;45.384;20.390;2023-01-06T12:55:45;333.70;2329.60
55365;DHT22;41245;45.384;20.390;2023-01-06T12:58:22;333.70;2329.60
55365;DHT22;41245;45.384;20.390;2023-01-06T13:01:00;333.70;2329.60
55365;DHT22;41245;45.384;20.390;2023-01-06T13:06:30;333.70;2329.60
55365;DHT22;41245;45.384;20.390;2023-01-06T13:30:07;358.40;2329.60
55365;DHT22;41245;45.384;20.390;2023-01-06T14:35:44;333.50;2329.60
55365;DHT22;41245;45.384;20.390;2023-01-06T14:39:04;333.50;2329.60
55365;DHT22;41245;45.384;20.390;2023-01-06T14:41:36;333.50;2329.60
55365;DHT22;41245;45.384;20.390;2023-01-06T14:44:10;333.50;2329.60
55365;DHT22;41245;45.384;20.390;2023-01-06T14:46:49;333.50;2329.60
55365;DHT22;41245;45.384;20.390;2023-01-06T14:49:30;333.50;2329.60
55365;DHT22;41245;45.384;20.390;2023-01-06T15:11:48;333.50;2329.60
55365;DHT22;41245;45.384;20.390;2023-01-06T15:24:24;333.30;2329.60
